sensor_id;sensor_type;location;lat;lon;timestamp;temperature;humidity
8214;DHT22;4148;47.974;7.824;2023-12-04T00:01:26;-3.60;1.00
8214;DHT22;4148;47.974;7.824;2023-12-04T00:03:54;-3.70;1.00
8214;DHT22;4148;47.974;7.824;2023-12-04T00:06:23;-3.60;1.00
8214;DHT22;4148;47.974;7.824;2023-12-04T00:08:50;-3.60;1.00
8214;DHT22;4148;47.974;7.824;2023-12-04T00:11:20;-3.70;1.00
8214;DHT22;4148;47.974;7.824;2023-12-04T00:13:48;-3.70;1.00
8214;DHT22;4148;47.974;7.824;2023-12-04T00:16:15;-3.60;1.00
8214;DHT22;4148;47.974;7.824;2023-12-04T00:18:43;-3.60;1.00
8214;DHT22;4148;47.974;7.824;2023-12-04T00:21:12;-3.60;1.00
8214;DHT22;4148;47.974;7.824;2023-12-04T00:23:40;-3.60;1.00
8214;DHT22;4148;47.974;7.824;2023-12-04T00:26:08;-3.70;1.00
8214;DHT22;4148;47.974;7.824;2023-12-04T00:28:37;-3.70;1.00
8214;DHT22;4148;47.974;7.824;2023-12-04T00:31:06;-3.80;1.00
8214;DHT22;4148;47.974;7.824;2023-12-04T00:33:34;-3.80;1.00
8214;DHT22;4148;47.974;7.824;2023-12-04T00:36:02;-3.70;1.00
8214;DHT22;4148;47.974;7.824;2023-12-04T00:38:30;-3.70;1.00
8214;DHT22;4148;47.974;7.824;2023-12-04T00:40:58;-3.60;1.00
8214;DHT22;4148;47.974;7.824;2023-12-04T00:43:25;-3.80;1.00
8214;DHT22;4148;47.974;7.824;2023-12-04T00:45:55;-3.80;1.00
8214;DHT22;4148;47.974;7.824;2023-12-04T00:48:22;-3.80;1.00
8214;DHT22;4148;47.974;7.824;2023-12-04T00:50:51;-3.50;1.00
8214;DHT22;4148;47.974;7.824;2023-12-04T00:53:19;-3.50;1.00
8214;DHT22;4148;47.974;7.824;2023-12-04T00:55:47;-3.70;1.00
8214;DHT22;4148;47.974;7.824;2023-12-04T00:58:15;-3.70;1.00
8214;DHT22;4148;47.974;7.824;2023-12-04T01:00:42;-3.70;1.00
8214;DHT22;4148;47.974;7.824;2023-12-04T01:03:12;-3.60;1.00
8214;DHT22;4148;47.974;7.824;2023-12-04T01:05:40;-3.70;1.00
8214;DHT22;4148;47.974;7.824;2023-12-04T01:08:07;-3.80;1.00
8214;DHT22;4148;47.974;7.824;2023-12-04T01:10:35;-3.80;1.00
8214;DHT22;4148;47.974;7.824;2023-12-04T01:13:03;-3.80;1.00
8214;DHT22;4148;47.974;7.824;2023-12-04T01:15:31;-3.70;1.00
8214;DHT22;4148;47.974;7.824;2023-12-04T01:17:59;-3.70;1.00
8214;DHT22;4148;47.974;7.824;2023-12-04T01:20:30;-3.80;1.00
8214;DHT22;4148;47.974;7.824;2023-12-04T01:23:00;-3.90;1.00
8214;DHT22;4148;47.974;7.824;2023-12-04T01:25:27;-3.80;1.00
8214;DHT22;4148;47.974;7.824;2023-12-04T01:27:56;-3.80;1.00
8214;DHT22;4148;47.974;7.824;2023-12-04T01:30:24;-3.90;1.00
8214;DHT22;4148;47.974;7.824;2023-12-04T01:32:52;-3.80;1.00
8214;DHT22;4148;47.974;7.824;2023-12-04T01:35:19;-3.80;1.00
8214;DHT22;4148;47.974;7.824;2023-12-04T01:37:49;-3.80;1.00
8214;DHT22;4148;47.974;7.824;2023-12-04T01:40:16;-3.90;1.00
8214;DHT22;4148;47.974;7.824;2023-12-04T01:42:44;-4.00;1.00
8214;DHT22;4148;47.974;7.824;2023-12-04T01:45:12;-4.00;1.00
8214;DHT22;4148;47.974;7.824;2023-12-04T01:47:40;-4.00;1.00
8214;DHT22;4148;47.974;7.824;2023-12-04T01:50:09;-4.00;1.00
8214;DHT22;4148;47.974;7.824;2023-12-04T01:52:37;-4.00;1.00
8214;DHT22;4148;47.974;7.824;2023-12-04T01:55:08;-3.80;1.00
8214;DHT22;4148;47.974;7.824;2023-12-04T01:57:37;-3.60;1.00
8214;DHT22;4148;47.974;7.824;2023-12-04T02:00:06;-3.40;1.00
8214;DHT22;4148;47.974;7.824;2023-12-04T02:02:38;-3.60;1.00
8214;DHT22;4148;47.974;7.824;2023-12-04T02:05:07;-3.80;1.00
8214;DHT22;4148;47.974;7.824;2023-12-04T02:07:35;-3.90;1.00
8214;DHT22;4148;47.974;7.824;2023-12-04T02:10:04;-3.60;1.00
8214;DHT22;4148;47.974;7.824;2023-12-04T02:12:34;-3.40;1.00
8214;DHT22;4148;47.974;7.824;2023-12-04T02:15:03;-3.40;1.00
8214;DHT22;4148;47.974;7.824;2023-12-04T02:17:32;-3.30;1.00
8214;DHT22;4148;47.974;7.824;2023-12-04T02:20:01;-3.30;1.00
8214;DHT22;4148;47.974;7.824;2023-12-04T02:22:30;-3.40;1.00
8214;DHT22;4148;47.974;7.824;2023-12-04T02:24:59;-3.50;1.00
8214;DHT22;4148;47.974;7.824;2023-12-04T02:27:30;-3.60;1.00
8214;DHT22;4148;47.974;7.824;2023-12-04T02:30:02;-3.60;1.00
8214;DHT22;4148;47.974;7.824;2023-12-04T02:32:35;-3.70;1.00
8214;DHT22;4148;47.974;7.824;2023-12-04T02:35:05;-3.70;1.00
8214;DHT22;4148;47.974;7.824;2023-12-04T02:37:34;-3.60;1.00
8214;DHT22;4148;47.974;7.824;2023-12-04T02:40:04;-3.60;1.00
8214;DHT22;4148;47.974;7.824;2023-12-04T02:42:33;-3.70;1.00
8214;DHT22;4148;47.974;7.824;2023-12-04T02:45:01;-3.70;1.00
8214;DHT22;4148;47.974;7.824;2023-12-04T02:47:29;-3.60;1.00
8214;DHT22;4148;47.974;7.824;2023-12-04T02:49:57;-3.60;1.00
8214;DHT22;4148;47.974;7.824;2023-12-04T02:52:25;-3.70;1.00
8214;DHT22;4148;47.974;7.824;2023-12-04T02:54:53;-3.70;1.00
8214;DHT22;4148;47.974;7.824;2023-12-04T02:57:22;-3.70;1.00
8214;DHT22;4148;47.974;7.824;2023-12-04T02:59:50;-3.70;1.00
8214;DHT22;4148;47.974;7.824;2023-12-04T03:02:18;-3.50;1.00
8214;DHT22;4148;47.974;7.824;2023-12-04T03:04:45;-3.60;1.00
8214;DHT22;4148;47.974;7.824;2023-12-04T03:07:13;-3.50;1.00
8214;DHT22;4148;47.974;7.824;2023-12-04T03:09:41;-3.40;1.00
8214;DHT22;4148;47.974;7.824;2023-12-04T03:12:15;-3.40;1.00
8214;DHT22;4148;47.974;7.824;2023-12-04T03:14:44;-3.40;1.00
8214;DHT22;4148;47.974;7.824;2023-12-04T03:17:12;-3.40;1.00
8214;DHT22;4148;47.974;7.824;2023-12-04T03:19:40;-3.30;1.00
8214;DHT22;4148;47.974;7.824;2023-12-04T03:22:08;-3.10;1.00
8214;DHT22;4148;47.974;7.824;2023-12-04T03:24:36;-3.20;1.00
8214;DHT22;4148;47.974;7.824;2023-12-04T03:27:04;-3.20;1.00
8214;DHT22;4148;47.974;7.824;2023-12-04T03:29:32;-3.10;1.00
8214;DHT22;4148;47.974;7.824;2023-12-04T03:32:01;-3.00;1.00
8214;DHT22;4148;47.974;7.824;2023-12-04T03:34:29;-2.70;1.00
8214;DHT22;4148;47.974;7.824;2023-12-04T03:36:57;-2.80;1.00
8214;DHT22;4148;47.974;7.824;2023-12-04T03:39:24;-2.80;1.00
8214;DHT22;4148;47.974;7.824;2023-12-04T03:41:52;-2.80;1.00
8214;DHT22;4148;47.974;7.824;2023-12-04T03:44:22;-2.60;1.00
8214;DHT22;4148;47.974;7.824;2023-12-04T03:46:50;-2.70;1.00
8214;DHT22;4148;47.974;7.824;2023-12-04T03:49:19;-2.70;1.00
8214;DHT22;4148;47.974;7.824;2023-12-04T03:51:47;-2.70;1.00
8214;DHT22;4148;47.974;7.824;2023-12-04T03:54:15;-2.70;1.00
8214;DHT22;4148;47.974;7.824;2023-12-04T03:56:43;-2.80;1.00
8214;DHT22;4148;47.974;7.824;2023-12-04T03:59:11;-2.70;1.00
8214;DHT22;4148;47.974;7.824;2023-12-04T04:01:39;-2.60;1.00
8214;DHT22;4148;47.974;7.824;2023-12-04T04:04:07;-2.50;1.00
8214;DHT22;4148;47.974;7.824;2023-12-04T04:06:36;-2.60;1.00
8214;DHT22;4148;47.974;7.824;2023-12-04T04:09:05;-2.60;1.00
8214;DHT22;4148;47.974;7.824;2023-12-04T04:11:34;-2.60;1.00
8214;DHT22;4148;47.974;7.824;2023-12-04T04:14:02;-2.60;1.00
8214;DHT22;4148;47.974;7.824;2023-12-04T04:16:30;-2.70;1.00
8214;DHT22;4148;47.974;7.824;2023-12-04T04:18:58;-2.60;1.00
8214;DHT22;4148;47.974;7.824;2023-12-04T04:21:26;-2.60;1.00
8214;DHT22;4148;47.974;7.824;2023-12-04T04:23:55;-2.40;1.00
8214;DHT22;4148;47.974;7.824;2023-12-04T04:26:23;-2.50;1.00
8214;DHT22;4148;47.974;7.824;2023-12-04T04:28:51;-2.60;1.00
8214;DHT22;4148;47.974;7.824;2023-12-04T04:31:19;-2.70;1.00
8214;DHT22;4148;47.974;7.824;2023-12-04T04:33:46;-2.70;1.00
8214;DHT22;4148;47.974;7.824;2023-12-04T04:36:14;-2.50;1.00
8214;DHT22;4148;47.974;7.824;2023-12-04T04:38:42;-2.50;1.00
8214;DHT22;4148;47.974;7.824;2023-12-04T04:41:14;-2.30;1.00
8214;DHT22;4148;47.974;7.824;2023-12-04T04:43:42;-2.30;1.00
8214;DHT22;4148;47.974;7.824;2023-12-04T04:46:10;-2.40;1.00
8214;DHT22;4148;47.974;7.824;2023-12-04T04:48:39;-2.50;1.00
8214;DHT22;4148;47.974;7.824;2023-12-04T04:51:07;-2.50;1.00
8214;DHT22;4148;47.974;7.824;2023-12-04T04:53:35;-2.50;1.00
8214;DHT22;4148;47.974;7.824;2023-12-04T04:56:04;-2.50;1.00
8214;DHT22;4148;47.974;7.824;2023-12-04T04:58:33;-2.50;1.00
8214;DHT22;4148;47.974;7.824;2023-12-04T05:01:02;-2.50;1.00
8214;DHT22;4148;47.974;7.824;2023-12-04T05:03:30;-2.30;1.00
8214;DHT22;4148;47.974;7.824;2023-12-04T05:05:58;-2.10;1.00
8214;DHT22;4148;47.974;7.824;2023-12-04T05:08:26;-2.00;1.00
8214;DHT22;4148;47.974;7.824;2023-12-04T05:10:54;-2.00;1.00
8214;DHT22;4148;47.974;7.824;2023-12-04T05:13:22;-2.00;1.00
8214;DHT22;4148;47.974;7.824;2023-12-04T05:15:52;-2.20;1.00
8214;DHT22;4148;47.974;7.824;2023-12-04T05:18:20;-2.30;1.00
8214;DHT22;4148;47.974;7.824;2023-12-04T05:20:48;-2.20;1.00
8214;DHT22;4148;47.974;7.824;2023-12-04T05:23:15;-2.20;1.00
8214;DHT22;4148;47.974;7.824;2023-12-04T05:25:43;-2.20;1.00
8214;DHT22;4148;47.974;7.824;2023-12-04T05:28:16;-2.20;1.00
8214;DHT22;4148;47.974;7.824;2023-12-04T05:30:45;-2.30;1.00
8214;DHT22;4148;47.974;7.824;2023-12-04T05:33:14;-2.20;1.00
8214;DHT22;4148;47.974;7.824;2023-12-04T05:35:42;-2.20;1.00
8214;DHT22;4148;47.974;7.824;2023-12-04T05:38:10;-2.10;1.00
8214;DHT22;4148;47.974;7.824;2023-12-04T05:40:38;-2.20;1.00
8214;DHT22;4148;47.974;7.824;2023-12-04T05:43:06;-2.30;1.00
8214;DHT22;4148;47.974;7.824;2023-12-04T05:45:34;-2.20;1.00
8214;DHT22;4148;47.974;7.824;2023-12-04T05:48:02;-2.20;1.00
8214;DHT22;4148;47.974;7.824;2023-12-04T05:50:32;-2.10;1.00
8214;DHT22;4148;47.974;7.824;2023-12-04T05:53:00;-2.10;1.00
8214;DHT22;4148;47.974;7.824;2023-12-04T05:55:27;-2.10;1.00
8214;DHT22;4148;47.974;7.824;2023-12-04T05:57:55;-1.90;1.00
8214;DHT22;4148;47.974;7.824;2023-12-04T06:00:23;-2.00;1.00
8214;DHT22;4148;47.974;7.824;2023-12-04T06:02:55;-1.90;1.00
8214;DHT22;4148;47.974;7.824;2023-12-04T06:05:23;-1.90;1.00
8214;DHT22;4148;47.974;7.824;2023-12-04T06:07:52;-1.90;1.00
8214;DHT22;4148;47.974;7.824;2023-12-04T06:10:20;-2.00;1.00
8214;DHT22;4148;47.974;7.824;2023-12-04T06:12:48;-1.90;1.00
8214;DHT22;4148;47.974;7.824;2023-12-04T06:15:16;-2.10;1.00
8214;DHT22;4148;47.974;7.824;2023-12-04T06:17:44;-2.10;1.00
8214;DHT22;4148;47.974;7.824;2023-12-04T06:20:11;-2.10;1.00
8214;DHT22;4148;47.974;7.824;2023-12-04T06:22:40;-2.10;1.00
8214;DHT22;4148;47.974;7.824;2023-12-04T06:25:10;-2.10;1.00
8214;DHT22;4148;47.974;7.824;2023-12-04T06:27:39;-2.20;1.00
8214;DHT22;4148;47.974;7.824;2023-12-04T06:30:07;-2.30;1.00
8214;DHT22;4148;47.974;7.824;2023-12-04T06:32:36;-2.30;1.00
8214;DHT22;4148;47.974;7.824;2023-12-04T06:35:04;-2.20;1.00
8214;DHT22;4148;47.974;7.824;2023-12-04T06:37:33;-2.20;1.00
8214;DHT22;4148;47.974;7.824;2023-12-04T06:40:01;-2.10;1.00
8214;DHT22;4148;47.974;7.824;2023-12-04T06:42:32;-2.10;1.00
8214;DHT22;4148;47.974;7.824;2023-12-04T06:45:00;-2.00;1.00
8214;DHT22;4148;47.974;7.824;2023-12-04T06:47:30;-1.90;1.00
8214;DHT22;4148;47.974;7.824;2023-12-04T06:49:58;-1.80;1.00
8214;DHT22;4148;47.974;7.824;2023-12-04T06:52:26;-1.90;1.00
8214;DHT22;4148;47.974;7.824;2023-12-04T06:54:54;-2.00;1.00
8214;DHT22;4148;47.974;7.824;2023-12-04T06:57:22;-2.00;1.00
8214;DHT22;4148;47.974;7.824;2023-12-04T06:59:52;-1.80;1.00
8214;DHT22;4148;47.974;7.824;2023-12-04T07:02:20;-1.90;1.00
8214;DHT22;4148;47.974;7.824;2023-12-04T07:04:48;-1.90;1.00
8214;DHT22;4148;47.974;7.824;2023-12-04T07:07:16;-1.90;1.00
8214;DHT22;4148;47.974;7.824;2023-12-04T07:09:43;-2.00;1.00
8214;DHT22;4148;47.974;7.824;2023-12-04T07:12:11;-1.90;1.00
8214;DHT22;4148;47.974;7.824;2023-12-04T07:14:39;-2.00;1.00
8214;DHT22;4148;47.974;7.824;2023-12-04T07:17:09;-2.00;1.00
8214;DHT22;4148;47.974;7.824;2023-12-04T07:19:38;-1.90;1.00
8214;DHT22;4148;47.974;7.824;2023-12-04T07:22:06;-1.90;1.00
8214;DHT22;4148;47.974;7.824;2023-12-04T07:24:34;-2.00;1.00
8214;DHT22;4148;47.974;7.824;2023-12-04T07:27:02;-1.90;1.00
8214;DHT22;4148;47.974;7.824;2023-12-04T07:29:30;-1.80;1.00
8214;DHT22;4148;47.974;7.824;2023-12-04T07:31:57;-1.70;1.00
8214;DHT22;4148;47.974;7.824;2023-12-04T07:34:27;-1.60;1.00
8214;DHT22;4148;47.974;7.824;2023-12-04T07:36:55;-1.60;1.00
8214;DHT22;4148;47.974;7.824;2023-12-04T07:39:23;-1.50;1.00
8214;DHT22;4148;47.974;7.824;2023-12-04T07:41:51;-1.60;1.00
8214;DHT22;4148;47.974;7.824;2023-12-04T07:44:19;-1.50;1.00
8214;DHT22;4148;47.974;7.824;2023-12-04T07:46:47;-1.60;1.00
8214;DHT22;4148;47.974;7.824;2023-12-04T07:49:15;-1.40;1.00
8214;DHT22;4148;47.974;7.824;2023-12-04T07:51:44;-1.50;1.00
8214;DHT22;4148;47.974;7.824;2023-12-04T07:54:13;-1.40;1.00
8214;DHT22;4148;47.974;7.824;2023-12-04T07:56:40;-1.40;1.00
8214;DHT22;4148;47.974;7.824;2023-12-04T07:59:09;-1.40;1.00
8214;DHT22;4148;47.974;7.824;2023-12-04T08:01:37;-1.40;1.00
8214;DHT22;4148;47.974;7.824;2023-12-04T08:04:06;-1.40;1.00
8214;DHT22;4148;47.974;7.824;2023-12-04T08:06:34;-1.50;1.00
8214;DHT22;4148;47.974;7.824;2023-12-04T08:09:03;-1.40;1.00
8214;DHT22;4148;47.974;7.824;2023-12-04T08:11:32;-1.30;1.00
8214;DHT22;4148;47.974;7.824;2023-12-04T08:14:01;-1.40;1.00
8214;DHT22;4148;47.974;7.824;2023-12-04T08:16:29;-1.40;1.00
8214;DHT22;4148;47.974;7.824;2023-12-04T08:18:56;-1.30;1.00
8214;DHT22;4148;47.974;7.824;2023-12-04T08:21:24;-1.30;1.00
8214;DHT22;4148;47.974;7.824;2023-12-04T08:23:52;-1.30;1.00
8214;DHT22;4148;47.974;7.824;2023-12-04T08:26:25;-1.30;1.00
8214;DHT22;4148;47.974;7.824;2023-12-04T08:28:53;-1.30;1.00
8214;DHT22;4148;47.974;7.824;2023-12-04T08:31:21;-1.30;1.00
8214;DHT22;4148;47.974;7.824;2023-12-04T08:33:48;-1.20;1.00
8214;DHT22;4148;47.974;7.824;2023-12-04T08:36:16;-1.20;1.00
8214;DHT22;4148;47.974;7.824;2023-12-04T08:38:44;-1.20;1.00
8214;DHT22;4148;47.974;7.824;2023-12-04T08:41:12;-1.10;1.00
8214;DHT22;4148;47.974;7.824;2023-12-04T08:43:41;-1.10;1.00
8214;DHT22;4148;47.974;7.824;2023-12-04T08:46:12;-1.10;1.00
8214;DHT22;4148;47.974;7.824;2023-12-04T08:48:41;-0.90;1.00
8214;DHT22;4148;47.974;7.824;2023-12-04T08:51:15;-0.90;1.00
8214;DHT22;4148;47.974;7.824;2023-12-04T08:53:43;-0.70;1.00
8214;DHT22;4148;47.974;7.824;2023-12-04T08:56:11;-0.70;1.00
8214;DHT22;4148;47.974;7.824;2023-12-04T08:58:49;-0.60;1.00
8214;DHT22;4148;47.974;7.824;2023-12-04T09:01:17;-0.60;1.00
8214;DHT22;4148;47.974;7.824;2023-12-04T09:03:45;-0.70;1.00
8214;DHT22;4148;47.974;7.824;2023-12-04T09:06:13;-0.60;1.00
8214;DHT22;4148;47.974;7.824;2023-12-04T09:08:42;-0.60;1.00
8214;DHT22;4148;47.974;7.824;2023-12-04T09:11:22;-0.60;1.00
8214;DHT22;4148;47.974;7.824;2023-12-04T09:13:52;-0.50;1.00
8214;DHT22;4148;47.974;7.824;2023-12-04T09:16:20;-0.40;1.00
8214;DHT22;4148;47.974;7.824;2023-12-04T09:18:48;-0.30;1.00
8214;DHT22;4148;47.974;7.824;2023-12-04T09:21:16;-0.30;1.00
8214;DHT22;4148;47.974;7.824;2023-12-04T09:23:44;-0.30;1.00
8214;DHT22;4148;47.974;7.824;2023-12-04T09:26:16;-0.30;1.00
8214;DHT22;4148;47.974;7.824;2023-12-04T09:28:44;-0.20;1.00
8214;DHT22;4148;47.974;7.824;2023-12-04T09:31:13;-0.30;1.00
8214;DHT22;4148;47.974;7.824;2023-12-04T09:33:41;-0.20;1.00
8214;DHT22;4148;47.974;7.824;2023-12-04T09:36:09;-0.20;1.00
8214;DHT22;4148;47.974;7.824;2023-12-04T09:38:37;-0.20;1.00
8214;DHT22;4148;47.974;7.824;2023-12-04T09:41:06;-0.30;1.00
8214;DHT22;4148;47.974;7.824;2023-12-04T09:43:36;-0.20;1.00
8214;DHT22;4148;47.974;7.824;2023-12-04T09:46:05;-0.20;1.00
8214;DHT22;4148;47.974;7.824;2023-12-04T09:48:35;-0.20;1.00
8214;DHT22;4148;47.974;7.824;2023-12-04T09:51:06;-0.10;1.00
8214;DHT22;4148;47.974;7.824;2023-12-04T09:53:35;-0.20;1.00
8214;DHT22;4148;47.974;7.824;2023-12-04T09:56:04;-0.10;1.00
8214;DHT22;4148;47.974;7.824;2023-12-04T09:58:32;0.00;1.00
8214;DHT22;4148;47.974;7.824;2023-12-04T10:01:01;0.10;1.00
8214;DHT22;4148;47.974;7.824;2023-12-04T10:03:30;0.00;1.00
8214;DHT22;4148;47.974;7.824;2023-12-04T10:06:02;-0.10;1.00
8214;DHT22;4148;47.974;7.824;2023-12-04T10:08:31;0.00;1.00
8214;DHT22;4148;47.974;7.824;2023-12-04T10:10:58;-0.10;1.00
8214;DHT22;4148;47.974;7.824;2023-12-04T10:13:27;-0.10;1.00
8214;DHT22;4148;47.974;7.824;2023-12-04T10:16:31;-0.10;1.00
8214;DHT22;4148;47.974;7.824;2023-12-04T10:19:14;0.00;1.00
8214;DHT22;4148;47.974;7.824;2023-12-04T10:21:45;0.10;1.00
8214;DHT22;4148;47.974;7.824;2023-12-04T10:24:15;0.10;1.00
8214;DHT22;4148;47.974;7.824;2023-12-04T10:26:53;0.30;1.00
8214;DHT22;4148;47.974;7.824;2023-12-04T10:29:23;0.40;1.00
8214;DHT22;4148;47.974;7.824;2023-12-04T10:31:51;0.50;1.00
8214;DHT22;4148;47.974;7.824;2023-12-04T10:34:21;0.60;1.00
8214;DHT22;4148;47.974;7.824;2023-12-04T10:36:55;0.60;1.00
8214;DHT22;4148;47.974;7.824;2023-12-04T10:39:24;0.80;1.00
8214;DHT22;4148;47.974;7.824;2023-12-04T10:42:00;0.90;1.00
8214;DHT22;4148;47.974;7.824;2023-12-04T10:44:30;0.80;1.00
8214;DHT22;4148;47.974;7.824;2023-12-04T10:47:00;0.80;1.00
8214;DHT22;4148;47.974;7.824;2023-12-04T10:49:28;0.80;1.00
8214;DHT22;4148;47.974;7.824;2023-12-04T10:51:59;0.70;1.00
8214;DHT22;4148;47.974;7.824;2023-12-04T10:54:28;0.70;1.00
8214;DHT22;4148;47.974;7.824;2023-12-04T10:57:00;0.90;1.00
8214;DHT22;4148;47.974;7.824;2023-12-04T10:59:36;0.80;1.00
8214;DHT22;4148;47.974;7.824;2023-12-04T11:02:06;0.70;1.00
8214;DHT22;4148;47.974;7.824;2023-12-04T11:04:38;0.70;1.00
8214;DHT22;4148;47.974;7.824;2023-12-04T11:07:09;0.60;1.00
8214;DHT22;4148;47.974;7.824;2023-12-04T11:09:38;0.60;1.00
8214;DHT22;4148;47.974;7.824;2023-12-04T11:12:09;0.60;1.00
8214;DHT22;4148;47.974;7.824;2023-12-04T11:14:44;0.60;1.00
8214;DHT22;4148;47.974;7.824;2023-12-04T11:17:14;0.60;1.00
8214;DHT22;4148;47.974;7.824;2023-12-04T11:19:50;0.50;1.00
8214;DHT22;4148;47.974;7.824;2023-12-04T11:22:21;0.60;1.00
8214;DHT22;4148;47.974;7.824;2023-12-04T11:24:49;0.60;1.00
8214;DHT22;4148;47.974;7.824;2023-12-04T11:27:18;0.70;1.00
8214;DHT22;4148;47.974;7.824;2023-12-04T11:29:46;0.80;1.00
8214;DHT22;4148;47.974;7.824;2023-12-04T11:32:15;0.70;1.00
8214;DHT22;4148;47.974;7.824;2023-12-04T11:34:50;0.80;1.00
8214;DHT22;4148;47.974;7.824;2023-12-04T11:37:21;0.80;1.00
8214;DHT22;4148;47.974;7.824;2023-12-04T11:39:50;0.80;1.00
8214;DHT22;4148;47.974;7.824;2023-12-04T11:42:23;0.70;1.00
8214;DHT22;4148;47.974;7.824;2023-12-04T11:44:57;0.80;1.00
8214;DHT22;4148;47.974;7.824;2023-12-04T11:47:28;0.80;1.00
8214;DHT22;4148;47.974;7.824;2023-12-04T11:49:57;0.90;1.00
8214;DHT22;4148;47.974;7.824;2023-12-04T11:52:33;0.90;1.00
8214;DHT22;4148;47.974;7.824;2023-12-04T11:55:03;0.90;1.00
8214;DHT22;4148;47.974;7.824;2023-12-04T11:57:34;1.00;1.00
8214;DHT22;4148;47.974;7.824;2023-12-04T12:00:13;1.00;1.00
8214;DHT22;4148;47.974;7.824;2023-12-04T12:02:49;1.10;1.00
8214;DHT22;4148;47.974;7.824;2023-12-04T12:05:49;1.20;1.00
8214;DHT22;4148;47.974;7.824;2023-12-04T12:08:19;1.10;1.00
8214;DHT22;4148;47.974;7.824;2023-12-04T12:10:47;1.20;1.00
8214;DHT22;4148;47.974;7.824;2023-12-04T12:13:15;1.30;1.00
8214;DHT22;4148;47.974;7.824;2023-12-04T12:15:46;1.30;1.00
8214;DHT22;4148;47.974;7.824;2023-12-04T12:18:14;1.40;1.00
8214;DHT22;4148;47.974;7.824;2023-12-04T12:20:42;1.40;1.00
8214;DHT22;4148;47.974;7.824;2023-12-04T12:23:10;1.40;1.00
8214;DHT22;4148;47.974;7.824;2023-12-04T12:25:39;1.40;1.00
8214;DHT22;4148;47.974;7.824;2023-12-04T12:28:07;1.40;1.00
8214;DHT22;4148;47.974;7.824;2023-12-04T12:30:35;1.40;1.00
8214;DHT22;4148;47.974;7.824;2023-12-04T12:33:03;1.50;1.00
8214;DHT22;4148;47.974;7.824;2023-12-04T12:35:31;1.50;1.00
8214;DHT22;4148;47.974;7.824;2023-12-04T12:37:59;1.50;1.00
8214;DHT22;4148;47.974;7.824;2023-12-04T12:40:28;1.50;1.00
8214;DHT22;4148;47.974;7.824;2023-12-04T12:43:05;1.40;1.00
8214;DHT22;4148;47.974;7.824;2023-12-04T12:45:40;1.40;1.00
8214;DHT22;4148;47.974;7.824;2023-12-04T12:48:12;1.60;1.10
8214;DHT22;4148;47.974;7.824;2023-12-04T12:50:41;1.70;1.00
8214;DHT22;4148;47.974;7.824;2023-12-04T12:53:10;1.60;1.00
8214;DHT22;4148;47.974;7.824;2023-12-04T12:55:38;1.60;1.00
8214;DHT22;4148;47.974;7.824;2023-12-04T12:58:08;1.60;1.00
8214;DHT22;4148;47.974;7.824;2023-12-04T13:00:37;1.70;1.00
8214;DHT22;4148;47.974;7.824;2023-12-04T13:03:13;1.70;1.00
8214;DHT22;4148;47.974;7.824;2023-12-04T13:05:42;1.70;1.00
8214;DHT22;4148;47.974;7.824;2023-12-04T13:08:10;1.70;1.00
8214;DHT22;4148;47.974;7.824;2023-12-04T13:10:40;1.70;1.00
8214;DHT22;4148;47.974;7.824;2023-12-04T13:13:11;1.70;1.00
8214;DHT22;4148;47.974;7.824;2023-12-04T13:15:39;1.70;1.00
8214;DHT22;4148;47.974;7.824;2023-12-04T13:18:08;1.70;1.00
8214;DHT22;4148;47.974;7.824;2023-12-04T13:20:36;1.70;1.00
8214;DHT22;4148;47.974;7.824;2023-12-04T13:23:04;1.80;4.80
8214;DHT22;4148;47.974;7.824;2023-12-04T13:25:32;1.80;2.00
8214;DHT22;4148;47.974;7.824;2023-12-04T13:28:00;1.80;2.30
8214;DHT22;4148;47.974;7.824;2023-12-04T13:30:30;1.80;2.70
8214;DHT22;4148;47.974;7.824;2023-12-04T13:32:58;1.80;2.80
8214;DHT22;4148;47.974;7.824;2023-12-04T13:35:26;1.90;4.90
8214;DHT22;4148;47.974;7.824;2023-12-04T13:37:54;2.00;6.00
8214;DHT22;4148;47.974;7.824;2023-12-04T13:40:23;2.00;5.70
8214;DHT22;4148;47.974;7.824;2023-12-04T13:42:55;2.10;2.90
8214;DHT22;4148;47.974;7.824;2023-12-04T13:45:41;2.20;2.20
8214;DHT22;4148;47.974;7.824;2023-12-04T13:48:09;2.20;1.00
8214;DHT22;4148;47.974;7.824;2023-12-04T13:50:40;2.20;1.90
8214;DHT22;4148;47.974;7.824;2023-12-04T13:53:07;2.20;1.00
8214;DHT22;4148;47.974;7.824;2023-12-04T13:55:35;2.20;1.00
8214;DHT22;4148;47.974;7.824;2023-12-04T13:58:18;2.30;1.00
8214;DHT22;4148;47.974;7.824;2023-12-04T14:01:02;2.30;2.70
8214;DHT22;4148;47.974;7.824;2023-12-04T14:03:40;2.30;1.00
8214;DHT22;4148;47.974;7.824;2023-12-04T14:06:08;2.40;1.00
8214;DHT22;4148;47.974;7.824;2023-12-04T14:08:37;2.40;1.00
8214;DHT22;4148;47.974;7.824;2023-12-04T14:11:06;2.40;1.40
8214;DHT22;4148;47.974;7.824;2023-12-04T14:13:34;2.40;3.50
8214;DHT22;4148;47.974;7.824;2023-12-04T14:16:04;2.50;4.80
8214;DHT22;4148;47.974;7.824;2023-12-04T14:18:32;2.50;2.60
8214;DHT22;4148;47.974;7.824;2023-12-04T14:21:01;2.60;2.10
8214;DHT22;4148;47.974;7.824;2023-12-04T14:23:29;2.60;1.60
8214;DHT22;4148;47.974;7.824;2023-12-04T14:25:56;2.60;1.50
8214;DHT22;4148;47.974;7.824;2023-12-04T14:28:24;2.60;1.00
8214;DHT22;4148;47.974;7.824;2023-12-04T14:31:01;2.60;3.90
8214;DHT22;4148;47.974;7.824;2023-12-04T14:33:31;2.60;2.80
8214;DHT22;4148;47.974;7.824;2023-12-04T14:35:59;2.60;3.70
8214;DHT22;4148;47.974;7.824;2023-12-04T14:38:27;2.60;6.00
8214;DHT22;4148;47.974;7.824;2023-12-04T14:40:56;2.70;4.50
8214;DHT22;4148;47.974;7.824;2023-12-04T14:43:24;2.70;1.00
8214;DHT22;4148;47.974;7.824;2023-12-04T14:45:52;2.70;1.00
8214;DHT22;4148;47.974;7.824;2023-12-04T14:48:19;2.60;1.00
8214;DHT22;4148;47.974;7.824;2023-12-04T14:50:49;2.60;1.00
8214;DHT22;4148;47.974;7.824;2023-12-04T14:53:17;2.50;1.00
8214;DHT22;4148;47.974;7.824;2023-12-04T14:58:54;2.50;1.60
8214;DHT22;4148;47.974;7.824;2023-12-04T15:01:42;2.50;1.00
8214;DHT22;4148;47.974;7.824;2023-12-04T15:04:27;2.50;1.00
8214;DHT22;4148;47.974;7.824;2023-12-04T15:07:42;2.50;2.20
8214;DHT22;4148;47.974;7.824;2023-12-04T15:10:52;2.40;1.90
8214;DHT22;4148;47.974;7.824;2023-12-04T15:13:46;2.30;1.00
8214;DHT22;4148;47.974;7.824;2023-12-04T15:16:22;2.40;3.30
8214;DHT22;4148;47.974;7.824;2023-12-04T15:19:09;2.60;1.00
8214;DHT22;4148;47.974;7.824;2023-12-04T15:22:02;2.60;1.00
8214;DHT22;4148;47.974;7.824;2023-12-04T15:24:30;2.50;1.00
8214;DHT22;4148;47.974;7.824;2023-12-04T15:26:58;2.40;1.00
8214;DHT22;4148;47.974;7.824;2023-12-04T15:29:25;2.40;2.40
8214;DHT22;4148;47.974;7.824;2023-12-04T15:31:53;2.50;1.00
8214;DHT22;4148;47.974;7.824;2023-12-04T15:34:20;2.50;1.00
8214;DHT22;4148;47.974;7.824;2023-12-04T15:36:49;2.60;1.00
8214;DHT22;4148;47.974;7.824;2023-12-04T15:39:16;2.50;1.00
8214;DHT22;4148;47.974;7.824;2023-12-04T15:41:47;2.50;1.00
8214;DHT22;4148;47.974;7.824;2023-12-04T15:44:14;2.40;1.00
8214;DHT22;4148;47.974;7.824;2023-12-04T15:46:42;2.40;4.20
8214;DHT22;4148;47.974;7.824;2023-12-04T15:49:10;2.40;2.30
8214;DHT22;4148;47.974;7.824;2023-12-04T15:51:38;2.40;4.50
8214;DHT22;4148;47.974;7.824;2023-12-04T15:54:05;2.50;9.00
8214;DHT22;4148;47.974;7.824;2023-12-04T15:56:33;2.70;1.00
8214;DHT22;4148;47.974;7.824;2023-12-04T15:59:02;2.90;1.80
8214;DHT22;4148;47.974;7.824;2023-12-04T16:01:30;2.80;1.00
8214;DHT22;4148;47.974;7.824;2023-12-04T16:03:57;2.70;1.00
8214;DHT22;4148;47.974;7.824;2023-12-04T16:06:25;2.70;1.00
8214;DHT22;4148;47.974;7.824;2023-12-04T16:08:54;2.70;1.00
8214;DHT22;4148;47.974;7.824;2023-12-04T16:11:23;2.80;2.70
8214;DHT22;4148;47.974;7.824;2023-12-04T16:13:51;2.80;1.00
8214;DHT22;4148;47.974;7.824;2023-12-04T16:16:20;2.80;1.00
8214;DHT22;4148;47.974;7.824;2023-12-04T16:18:48;2.70;1.80
8214;DHT22;4148;47.974;7.824;2023-12-04T16:21:16;2.70;6.10
8214;DHT22;4148;47.974;7.824;2023-12-04T16:23:44;2.80;6.20
8214;DHT22;4148;47.974;7.824;2023-12-04T16:26:12;2.80;4.80
8214;DHT22;4148;47.974;7.824;2023-12-04T16:28:40;2.80;4.30
8214;DHT22;4148;47.974;7.824;2023-12-04T16:31:08;2.80;2.00
8214;DHT22;4148;47.974;7.824;2023-12-04T16:33:37;2.90;2.50
8214;DHT22;4148;47.974;7.824;2023-12-04T16:36:06;2.80;1.00
8214;DHT22;4148;47.974;7.824;2023-12-04T16:38:34;2.80;1.00
8214;DHT22;4148;47.974;7.824;2023-12-04T16:41:02;2.70;1.00
8214;DHT22;4148;47.974;7.824;2023-12-04T16:43:31;2.70;1.00